Time;durP1;ratioP1;P1;durP2;ratioP2;P2;SDS_P1;SDS_P2;PMS_P1;PMS_P2;Temp;Humidity;BMP_temperature;BMP_pressure;BME280_temperature;BME280_humidity;BME280_pressure;Samples;Min_cycle;Max_cycle;Signal;HPM_P1;HPM_P2
2022/09/05 00:02:44;;;;;;;4.03;1.83;;;;;;;16.72;79.28;101105.09;5012504;28;20095;-75
2022/09/05 00:06:04;;;;;;;3.20;1.60;;;;;;;16.65;79.38;101102.97;5011879;28;20117;-76
2022/09/05 00:09:20;;;;;;;3.40;1.50;;;;;;;16.69;79.21;101112.41;5011765;28;20052;-75
2022/09/05 00:12:24;;;;;;;4.03;1.42;;;;;;;16.67;79.29;101103.72;5011978;28;20527;-75
2022/09/05 00:15:42;;;;;;;4.50;1.40;;;;;;;16.59;79.57;101106.03;5015015;28;20542;-75
2022/09/05 00:18:57;;;;;;;3.75;1.85;;;;;;;16.60;79.48;101108.56;5015326;28;20040;-75
2022/09/05 00:22:18;;;;;;;5.97;1.63;;;;;;;16.63;79.36;101104.88;5015437;28;20065;-75
2022/09/05 00:25:48;;;;;;;3.10;1.30;;;;;;;16.55;78.96;101105.41;5016418;28;20073;-75
2022/09/05 00:29:20;;;;;;;3.38;2.00;;;;;;;16.51;79.44;101103.91;5016511;28;20045;-75
2022/09/05 00:32:45;;;;;;;2.88;1.60;;;;;;;16.46;79.33;101109.53;5027167;28;20060;-75
2022/09/05 00:36:12;;;;;;;4.45;2.03;;;;;;;16.30;79.73;101100.91;5039512;28;20075;-75
2022/09/05 00:39:21;;;;;;;2.55;1.63;;;;;;;16.27;79.89;101103.78;5038216;28;20049;-76
2022/09/05 00:42:25;;;;;;;6.72;2.10;;;;;;;16.30;79.58;101094.81;5032249;28;20153;-75
2022/09/05 00:45:36;;;;;;;4.20;1.95;;;;;;;16.31;79.76;101100.00;5014782;28;20036;-75
2022/09/05 00:48:51;;;;;;;4.43;1.95;;;;;;;16.18;80.12;101096.50;5015181;28;20125;-75
2022/09/05 00:52:04;;;;;;;2.97;1.90;;;;;;;16.12;80.22;101099.53;5014498;28;20088;-75
2022/09/05 00:55:32;;;;;;;4.60;2.17;;;;;;;16.10;80.35;101093.50;5015217;28;20044;-75
2022/09/05 00:59:23;;;;;;;3.25;2.10;;;;;;;16.12;79.74;101092.47;5015513;28;20084;-75
2022/09/05 01:02:48;;;;;;;2.65;1.60;;;;;;;16.16;79.58;101093.09;5003785;28;20072;-75
2022/09/05 01:06:14;;;;;;;3.13;1.85;;;;;;;16.13;79.54;101093.31;5015008;28;20044;-74
2022/09/05 01:09:24;;;;;;;3.50;2.08;;;;;;;16.01;80.03;101094.94;5015050;28;20428;-74
2022/09/05 01:13:04;;;;;;;5.18;2.30;;;;;;;16.08;79.54;101100.66;5015169;28;20100;-75
2022/09/05 01:16:34;;;;;;;6.88;2.50;;;;;;;16.04;79.19;101089.47;5014415;28;20096;-75
2022/09/05 01:19:44;;;;;;;4.00;2.15;;;;;;;16.01;79.18;101098.44;5014678;28;20096;-75
2022/09/05 01:23:14;;;;;;;3.97;2.40;;;;;;;15.93;79.34;101105.19;5014494;28;20643;-74
2022/09/05 01:26:50;;;;;;;5.40;2.58;;;;;;;15.87;79.40;101106.41;5013931;28;20111;-75
2022/09/05 01:30:06;;;;;;;3.83;2.30;;;;;;;15.76;80.00;101100.97;5006917;28;20569;-75
2022/09/05 01:33:31;;;;;;;4.35;2.15;;;;;;;15.80;79.48;101108.59;5014444;28;20040;-75
2022/09/05 01:36:53;;;;;;;5.93;2.42;;;;;;;15.70;80.05;101106.69;5014100;28;20044;-75
2022/09/05 01:40:22;;;;;;;8.13;2.60;;;;;;;15.74;79.79;101110.81;5013928;28;20096;-75
2022/09/05 01:43:31;;;;;;;3.53;1.77;;;;;;;15.72;79.62;101104.78;5014321;28;20508;-74
2022/09/05 01:47:08;;;;;;;7.93;2.25;;;;;;;15.66;79.73;101105.13;5014270;28;20124;-74
2022/09/05 01:50:33;;;;;;;3.17;2.25;;;;;;;15.59;80.21;101100.25;5014302;28;20052;-75
2022/09/05 01:53:52;;;;;;;5.05;2.40;;;;;;;15.68;79.41;101103.28;5014314;28;20048;-74
2022/09/05 01:57:49;;;;;;;3.80;2.13;;;;;;;15.64;79.08;101101.75;5014184;28;20045;-75
2022/09/05 02:01:20;;;;;;;6.15;2.53;;;;;;;15.53;79.69;101102.44;4963863;28;20045;-75
2022/09/05 02:04:23;;;;;;;4.13;1.80;;;;;;;15.48;79.94;101105.38;5014084;28;20100;-76
2022/09/05 02:07:52;;;;;;;2.80;2.10;;;;;;;15.46;79.68;101104.63;5013944;28;20041;-75
2022/09/05 02:11:12;;;;;;;3.40;2.15;;;;;;;15.47;79.57;101110.72;5013115;28;20543;-75
2022/09/05 02:14:44;;;;;;;3.78;2.22;;;;;;;15.45;79.64;101108.19;5024316;28;20044;-75
2022/09/05 02:17:59;;;;;;;4.07;2.20;;;;;;;15.40;79.66;101107.63;5013758;28;20077;-75
2022/09/05 02:21:09;;;;;;;4.78;2.20;;;;;;;15.44;79.72;101103.84;5012771;28;20072;-75
2022/09/05 02:24:20;;;;;;;3.47;2.40;;;;;;;15.45;78.94;101097.66;5024928;28;20053;-75
2022/09/05 02:27:27;;;;;;;4.80;1.88;;;;;;;15.43;79.25;101099.53;5014902;28;20041;-75
2022/09/05 02:30:40;;;;;;;5.22;2.70;;;;;;;15.26;79.98;101113.78;5015339;28;20104;-75
2022/09/05 02:34:16;;;;;;;3.75;2.10;;;;;;;15.10;80.66;101098.09;5015094;28;20096;-75
2022/09/05 02:37:44;;;;;;;3.17;2.03;;;;;;;15.19;79.96;101101.94;5030929;28;20053;-74
2022/09/05 02:40:56;;;;;;;4.15;2.25;;;;;;;15.29;79.49;101105.69;5032827;28;20562;-75
2022/09/05 02:44:31;;;;;;;2.90;1.63;;;;;;;15.26;79.54;101107.66;5031348;28;20102;-75
2022/09/05 02:48:38;;;;;;;3.28;2.15;;;;;;;15.26;79.19;101111.16;4974292;28;20046;-75
2022/09/05 02:52:15;;;;;;;3.80;2.30;;;;;;;15.14;79.63;101108.44;4995412;28;20042;-74
2022/09/05 02:55:57;;;;;;;4.05;2.22;;;;;;;15.11;79.73;101101.56;4971874;28;20101;-74
2022/09/05 02:59:00;;;;;;;4.00;2.25;;;;;;;15.06;79.81;101103.63;4964604;28;20057;-74
2022/09/05 03:02:35;;;;;;;5.68;2.30;;;;;;;15.07;79.48;101106.19;4971585;28;20046;-75
2022/09/05 03:05:59;;;;;;;5.75;2.60;;;;;;;14.91;79.57;101099.31;4971770;28;20081;-74
2022/09/05 03:09:20;;;;;;;5.90;2.40;;;;;;;14.86;79.84;101095.16;4971471;28;20049;-75
2022/09/05 03:12:48;;;;;;;5.50;2.47;;;;;;;14.84;80.01;101101.47;4971508;28;20077;-74
2022/09/05 03:15:56;;;;;;;4.97;2.40;;;;;;;14.75;80.44;101099.41;4971356;28;20529;-74
2022/09/05 03:18:59;;;;;;;4.78;2.20;;;;;;;14.79;80.28;101099.13;5002691;28;20523;-74
2022/09/05 03:22:25;;;;;;;5.82;1.95;;;;;;;14.82;79.59;101109.47;5012769;28;20396;-74
2022/09/05 03:25:56;;;;;;;5.45;2.20;;;;;;;14.94;79.04;101101.78;5012684;28;20077;-74
2022/09/05 03:29:12;;;;;;;4.60;2.30;;;;;;;14.85;79.20;101097.91;5023432;28;20053;-74
2022/09/05 03:32:36;;;;;;;4.30;2.65;;;;;;;14.76;80.26;101108.97;5012508;28;20096;-74
2022/09/05 03:36:08;;;;;;;4.18;2.50;;;;;;;14.68;80.73;101113.84;5012559;28;20131;-74
2022/09/05 03:39:38;;;;;;;4.40;2.30;;;;;;;14.67;80.02;101110.38;5012264;28;20507;-74
2022/09/05 03:43:15;;;;;;;4.15;1.85;;;;;;;14.72;79.66;101110.13;5012440;28;20049;-74
2022/09/05 03:46:48;;;;;;;3.33;2.05;;;;;;;14.74;79.38;101113.47;5012397;28;20097;-75
2022/09/05 03:50:16;;;;;;;3.00;1.90;;;;;;;14.64;79.47;101111.44;5008652;28;20173;-75
2022/09/05 03:53:29;;;;;;;3.80;2.20;;;;;;;14.69;79.28;101111.16;5015857;28;20488;-75
2022/09/05 03:56:53;;;;;;;2.67;2.05;;;;;;;14.66;79.18;101111.31;5016042;28;20084;-74
2022/09/05 04:00:26;;;;;;;4.15;2.33;;;;;;;14.52;79.44;101117.44;5026484;28;20204;-74
2022/09/05 04:03:42;;;;;;;4.43;2.83;;;;;;;14.52;79.50;101117.44;5016208;28;20123;-75
2022/09/05 04:06:53;;;;;;;6.30;2.15;;;;;;;14.55;79.37;101119.88;5016210;28;20527;-75
2022/09/05 04:10:08;;;;;;;3.47;2.00;;;;;;;14.48;79.19;101115.84;5016117;28;20060;-76
2022/09/05 04:13:29;;;;;;;3.75;1.95;;;;;;;14.51;78.93;101117.50;5016077;28;20490;-76
2022/09/05 04:16:57;;;;;;;4.30;2.70;;;;;;;14.36;79.80;101117.44;5015808;28;20041;-76
2022/09/05 04:20:03;;;;;;;8.07;2.22;;;;;;;14.26;80.19;101115.44;5015813;28;20072;-76
2022/09/05 04:23:41;;;;;;;4.50;2.10;;;;;;;14.28;79.69;101113.56;5031622;28;20572;-76
2022/09/05 04:27:09;;;;;;;4.07;1.80;;;;;;;14.30;79.39;101117.81;5035404;28;20050;-76
2022/09/05 04:30:45;;;;;;;3.40;2.00;;;;;;;14.41;78.77;101118.00;5011344;28;20077;-76
2022/09/05 04:33:58;;;;;;;3.65;2.03;;;;;;;14.34;79.19;101121.09;5021750;28;20051;-76
2022/09/05 04:37:04;;;;;;;;;;;;;;;14.36;79.22;101125.34;5031817;28;20052;-75
2022/09/05 04:40:46;;;;;;;3.22;1.80;;;;;;;14.38;78.85;101130.50;5022558;28;19968;-75
2022/09/05 04:43:58;;;;;;;4.00;2.10;;;;;;;14.28;79.32;101129.34;4951266;28;20078;-75
2022/09/05 04:47:08;;;;;;;3.28;2.15;;;;;;;14.23;79.43;101131.38;4996070;28;20100;-75
2022/09/05 04:50:22;;;;;;;6.05;2.15;;;;;;;14.20;79.59;101140.31;5011817;28;20048;-75
2022/09/05 04:53:53;;;;;;;4.03;2.13;;;;;;;14.03;80.54;101137.78;5011208;28;20480;-76
2022/09/05 04:57:14;;;;;;;2.92;2.10;;;;;;;14.13;79.58;101134.53;5012253;28;20137;-76
2022/09/05 05:00:41;;;;;;;5.55;2.00;;;;;;;14.18;79.19;101140.41;5010865;28;20143;-75
2022/09/05 05:03:45;;;;;;;5.55;2.15;;;;;;;14.21;78.99;101141.16;5011683;28;20080;-75
2022/09/05 05:07:10;;;;;;;4.20;2.03;;;;;;;14.17;79.18;101149.22;5011513;28;20056;-75
2022/09/05 05:10:56;;;;;;;3.45;1.80;;;;;;;14.19;78.96;101146.50;5011954;28;20052;-75
2022/09/05 05:14:13;;;;;;;3.80;2.28;;;;;;;14.07;79.40;101148.06;5011758;28;20084;-76
2022/09/05 05:17:28;;;;;;;5.80;2.30;;;;;;;14.05;79.57;101164.84;5025241;28;20096;-75
2022/09/05 05:20:48;;;;;;;2.90;1.60;;;;;;;14.12;79.38;101156.53;5032550;28;20837;-75
2022/09/05 05:23:57;;;;;;;6.38;1.83;;;;;;;14.10;79.51;101158.41;5030972;28;20071;-76
2022/09/05 05:27:09;;;;;;;4.13;2.20;;;;;;;14.11;79.56;101159.25;5030358;28;20068;-75
2022/09/05 05:30:40;;;;;;;3.13;1.80;;;;;;;14.18;79.16;101166.69;5028346;28;20052;-76
2022/09/05 05:33:51;;;;;;;2.88;1.80;;;;;;;14.27;78.95;101160.06;5029458;28;20409;-79
2022/09/05 05:37:28;;;;;;;3.35;1.98;;;;;;;14.26;79.06;101158.34;5029233;28;20128;-79
2022/09/05 05:40:33;;;;;;;5.93;1.90;;;;;;;14.23;79.24;101162.94;5029370;28;20133;-80
2022/09/05 05:43:40;;;;;;;2.95;1.55;;;;;;;14.28;79.07;101160.91;5029301;28;20232;-80
2022/09/05 05:46:59;;;;;;;2.78;1.88;;;;;;;14.18;79.10;101161.44;5029261;28;20387;-79
2022/09/05 05:50:15;;;;;;;3.50;1.67;;;;;;;14.17;79.32;101165.00;5029294;28;20044;-79
2022/09/05 05:53:29;;;;;;;3.75;1.73;;;;;;;14.30;78.94;101174.84;5028519;28;20171;-79
2022/09/05 05:57:01;;;;;;;2.60;1.50;;;;;;;14.34;78.97;101171.09;5027152;28;20396;-78
2022/09/05 06:00:29;;;;;;;5.90;1.90;;;;;;;14.29;79.41;101175.75;5027478;28;20048;-80
2022/09/05 06:04:24;;;;;;;3.05;1.95;;;;;;;14.29;79.98;101176.59;5030276;28;20475;-80
2022/09/05 06:07:36;;;;;;;3.65;2.03;;;;;;;14.29;79.88;101173.97;5018175;28;20087;-79
2022/09/05 06:11:13;;;;;;;2.85;1.90;;;;;;;14.33;80.12;101179.91;5028215;28;20095;-81
2022/09/05 06:14:43;;;;;;;6.47;2.28;;;;;;;14.38;80.17;101177.84;5027124;28;20191;-80
2022/09/05 06:17:57;;;;;;;3.65;2.20;;;;;;;14.42;80.62;101184.63;5029414;28;20412;-80
2022/09/05 06:21:28;;;;;;;3.35;1.90;;;;;;;14.53;80.00;101178.78;5039591;28;20048;-80
2022/09/05 06:24:56;;;;;;;4.50;1.75;;;;;;;14.50;80.45;101166.63;5028787;28;20621;-77
2022/09/05 06:28:37;;;;;;;4.47;2.05;;;;;;;14.42;81.18;101171.47;5028581;28;20451;-77
2022/09/05 06:32:25;;;;;;;3.78;1.85;;;;;;;14.55;81.40;101175.13;5027402;28;20141;-77
2022/09/05 06:36:10;;;;;;;4.65;1.95;;;;;;;14.59;80.65;101176.66;5028196;28;20107;-77
2022/09/05 06:40:10;;;;;;;4.43;2.27;;;;;;;14.51;80.85;101173.59;4955640;28;20053;-77
2022/09/05 06:43:23;;;;;;;4.00;2.55;;;;;;;14.71;80.34;101176.84;4988527;28;20045;-77
2022/09/05 06:46:40;;;;;;;6.00;2.35;;;;;;;14.79;80.47;101172.81;4988547;28;20096;-77
2022/09/05 06:50:09;;;;;;;2.80;2.28;;;;;;;14.82;80.35;101177.06;4989768;28;20571;-77
2022/09/05 06:53:51;;;;;;;3.05;1.92;;;;;;;14.91;80.16;101176.53;4988522;28;20461;-77
2022/09/05 06:57:29;;;;;;;6.95;2.78;;;;;;;14.86;81.13;101174.16;4987798;28;20044;-80
2022/09/05 07:00:51;;;;;;;3.00;2.15;;;;;;;14.96;80.24;101174.44;4988218;28;20050;-78
2022/09/05 07:04:24;;;;;;;3.92;2.17;;;;;;;15.02;80.32;101184.59;4990519;28;20124;-78
2022/09/05 07:07:43;;;;;;;4.68;2.03;;;;;;;15.07;80.51;101185.19;4989891;28;20045;-81
2022/09/05 07:11:17;;;;;;;4.38;2.53;;;;;;;15.20;80.82;101177.38;4990428;28;20076;-78
2022/09/05 07:14:56;;;;;;;3.67;2.78;;;;;;;15.25;81.17;101179.72;4991799;28;20532;-77
2022/09/05 07:18:12;;;;;;;4.47;2.13;;;;;;;15.34;80.98;101173.91;4989414;28;20053;-78
2022/09/05 07:21:32;;;;;;;3.72;2.25;;;;;;;15.51;80.60;101175.50;4989965;28;20100;-79
2022/09/05 07:24:39;;;;;;;4.57;2.42;;;;;;;15.61;80.44;101175.78;5002612;28;20041;-78
2022/09/05 07:28:09;;;;;;;3.75;2.38;;;;;;;15.67;81.10;101178.91;5007971;28;20045;-78
2022/09/05 07:31:16;;;;;;;4.50;2.60;;;;;;;15.83;81.53;101186.69;5009616;28;20080;-78
2022/09/05 07:34:30;;;;;;;3.33;2.55;;;;;;;15.93;80.80;101177.22;5008741;28;20137;-79
2022/09/05 07:37:40;;;;;;;3.60;2.17;;;;;;;16.03;80.72;101178.31;5008963;28;20077;-78
2022/09/05 07:40:58;;;;;;;3.47;2.30;;;;;;;16.17;81.17;101173.94;5009006;28;20417;-78
2022/09/05 07:44:14;;;;;;;3.33;2.00;;;;;;;16.31;81.40;101165.13;5009152;28;20100;-78
2022/09/05 07:47:24;;;;;;;5.63;2.85;;;;;;;16.45;80.77;101168.53;5009109;28;20188;-79
2022/09/05 07:50:32;;;;;;;5.38;2.40;;;;;;;16.48;82.20;101168.31;5008773;28;20040;-79
2022/09/05 07:53:42;;;;;;;3.83;2.25;;;;;;;16.61;81.37;101168.34;5008205;28;20072;-81
2022/09/05 07:56:56;;;;;;;4.95;1.85;;;;;;;16.72;81.57;101165.84;5008876;28;20064;-81
2022/09/05 08:00:07;;;;;;;3.70;2.00;;;;;;;16.88;80.85;101155.09;5009415;28;20512;-82
2022/09/05 08:03:15;;;;;;;3.95;2.47;;;;;;;17.04;79.44;101154.03;5009219;28;20583;-79
2022/09/05 08:06:23;;;;;;;5.85;2.58;;;;;;;17.19;78.89;101155.59;5008346;28;20421;-80
2022/09/05 08:09:39;;;;;;;9.18;2.42;;;;;;;17.34;78.72;101151.88;5009262;28;20056;-80
2022/09/05 08:12:53;;;;;;;5.07;2.30;;;;;;;17.48;78.61;101153.53;5009527;28;20065;-80
2022/09/05 08:15:58;;;;;;;4.45;2.30;;;;;;;17.63;77.81;101146.31;5007680;28;20044;-80
2022/09/05 08:19:25;;;;;;;6.10;2.30;;;;;;;17.71;76.85;101148.41;5008605;28;20053;-79
2022/09/05 08:22:47;;;;;;;4.03;2.30;;;;;;;17.89;76.83;101142.66;5007136;28;20301;-79
2022/09/05 08:26:06;;;;;;;6.38;2.33;;;;;;;18.03;75.93;101135.53;5007411;28;20068;-76
2022/09/05 08:29:42;;;;;;;5.38;2.25;;;;;;;18.16;74.86;101138.94;5006993;28;20133;-77
2022/09/05 08:33:03;;;;;;;7.00;2.10;;;;;;;18.34;74.38;101137.53;5006232;28;20405;-77
2022/09/05 08:36:21;;;;;;;5.28;2.00;;;;;;;18.56;73.83;101139.41;5009581;28;20048;-77
2022/09/05 08:39:28;;;;;;;4.35;2.42;;;;;;;18.64;73.42;101128.25;5039387;28;20140;-77
2022/09/05 08:42:43;;;;;;;5.47;2.03;;;;;;;19.01;71.58;101120.13;5052085;28;20126;-78
2022/09/05 08:46:04;;;;;;;3.67;2.00;;;;;;;19.07;71.53;101122.28;5051156;28;20497;-78
2022/09/05 08:49:40;;;;;;;4.80;2.17;;;;;;;19.20;71.24;101120.34;5050544;28;20048;-78
2022/09/05 08:53:17;;;;;;;4.60;2.22;;;;;;;19.31;71.24;101113.38;5051230;28;20126;-73
2022/09/05 08:56:23;;;;;;;5.60;1.90;;;;;;;19.50;69.02;101105.63;5049852;28;20068;-76
2022/09/05 08:59:41;;;;;;;6.53;1.70;;;;;;;19.51;69.50;101115.28;5049717;28;20044;-76
2022/09/05 09:02:59;;;;;;;3.33;1.75;;;;;;;19.54;69.64;101104.41;5049831;28;20059;-76
2022/09/05 09:06:29;;;;;;;4.18;2.08;;;;;;;19.63;69.27;101103.66;5050015;28;20121;-76
2022/09/05 09:09:39;;;;;;;3.65;1.92;;;;;;;19.77;68.83;101102.56;5049509;28;20071;-76
2022/09/05 09:13:01;;;;;;;3.03;1.88;;;;;;;19.95;68.08;101094.91;5043631;28;20052;-77
2022/09/05 09:16:43;;;;;;;4.75;1.70;;;;;;;20.18;66.66;101088.53;5029183;28;20052;-77
2022/09/05 09:20:08;;;;;;;5.65;2.15;;;;;;;20.36;66.58;101082.66;5022543;28;20092;-78
2022/09/05 09:23:39;;;;;;;5.15;1.90;;;;;;;20.54;65.69;101086.41;5029745;28;20499;-78
2022/09/05 09:27:18;;;;;;;7.38;1.73;;;;;;;20.57;66.03;101080.84;5032021;28;20041;-78
2022/09/05 09:30:39;;;;;;;5.35;1.55;;;;;;;20.80;64.59;101067.38;5043284;28;20424;-78
2022/09/05 09:34:33;;;;;;;4.05;1.65;;;;;;;20.83;64.56;101075.91;5028930;28;20091;-78
2022/09/05 09:37:59;;;;;;;5.07;1.65;;;;;;;20.98;63.78;101067.59;5028550;28;20511;-78
2022/09/05 09:41:32;;;;;;;7.00;2.13;;;;;;;21.23;62.17;101066.28;5028328;28;20439;-74
2022/09/05 09:44:54;;;;;;;;;;;;;;;21.38;60.82;101058.78;5019624;28;20094;-75
2022/09/05 09:48:01;;;;;;;5.18;1.92;;;;;;;21.26;60.88;101047.41;5033641;28;19920;-75
2022/09/05 09:51:25;;;;;;;4.97;1.45;;;;;;;21.49;61.23;101042.69;5030106;28;20107;-73
2022/09/05 09:54:50;;;;;;;2.97;1.80;;;;;;;21.71;60.85;101038.94;5028337;28;20102;-75
2022/09/05 09:58:06;;;;;;;4.93;1.65;;;;;;;22.02;58.24;101024.50;5028877;28;20095;-77
2022/09/05 10:01:24;;;;;;;5.88;1.58;;;;;;;22.11;58.65;101029.94;5030325;28;20048;-74
2022/09/05 10:04:44;;;;;;;3.08;1.60;;;;;;;22.64;57.58;101021.41;5029502;28;20049;-75
2022/09/05 10:07:49;;;;;;;7.35;1.45;;;;;;;22.98;55.27;101025.22;5029924;28;20424;-74
2022/09/05 10:11:07;;;;;;;3.13;1.23;;;;;;;22.98;55.50;101029.72;5029646;28;20099;-74
2022/09/05 10:14:48;;;;;;;4.35;1.58;;;;;;;22.92;55.35;101019.59;5028314;28;20455;-74
2022/09/05 10:18:14;;;;;;;4.60;1.60;;;;;;;22.68;56.57;101006.78;5028907;28;20067;-75
2022/09/05 10:21:24;;;;;;;5.55;1.33;;;;;;;22.69;56.46;101003.16;5028227;28;20103;-74
2022/09/05 10:24:48;;;;;;;6.40;1.65;;;;;;;22.47;57.04;101002.53;5047139;28;20132;-74
2022/09/05 10:28:01;;;;;;;3.15;1.67;;;;;;;22.77;54.09;101000.56;5029924;28;20611;-74
2022/09/05 10:31:21;;;;;;;3.50;1.80;;;;;;;22.68;55.75;100996.97;5029230;28;20535;-74
2022/09/05 10:34:29;;;;;;;3.03;1.30;;;;;;;22.58;54.76;100984.69;5028297;28;20048;-76
2022/09/05 10:37:43;;;;;;;7.38;1.50;;;;;;;22.61;53.85;100981.72;5029463;28;20165;-82
2022/09/05 10:40:51;;;;;;;4.85;1.10;;;;;;;23.10;52.54;100982.31;5026496;28;20103;-79
2022/09/05 10:44:01;;;;;;;3.92;1.30;;;;;;;23.22;52.23;100989.13;5029344;28;20044;-76
2022/09/05 10:47:13;;;;;;;3.40;1.35;;;;;;;23.29;51.80;100982.19;5029408;28;20092;-77
2022/09/05 10:50:33;;;;;;;;;;;;;;;23.27;52.81;100980.69;5029868;28;20044;-79
2022/09/05 10:58:48;;;;;;;4.45;1.20;;;;;;;23.97;49.66;100964.78;4967295;28;20065;-81
2022/09/05 11:02:19;;;;;;;3.95;1.00;;;;;;;23.82;49.79;100949.31;4985323;28;20048;-80
2022/09/05 11:05:50;;;;;;;;;;;;;;;;;;;;;
2022/09/05 11:09:35;;;;;;;2.78;0.98;;;;;;;24.43;47.30;100946.69;5029761;28;20055;-85
2022/09/05 11:16:52;;;;;;;3.08;1.10;;;;;;;24.34;46.97;100943.09;5009857;28;20450;-85
2022/09/05 11:20:17;;;;;;;4.95;1.20;;;;;;;24.32;47.78;100939.75;5009957;28;20119;-80
2022/09/05 11:23:42;;;;;;;5.03;0.93;;;;;;;24.26;48.51;100929.72;5009246;28;20100;-81
2022/09/05 11:26:55;;;;;;;3.90;1.02;;;;;;;24.73;46.26;100919.41;5016314;28;20045;-78
2022/09/05 11:30:12;;;;;;;4.32;1.15;;;;;;;24.77;46.23;100920.75;5044479;28;20400;-79
2022/09/05 11:33:40;;;;;;;21.80;3.33;;;;;;;24.73;45.78;100907.84;5047781;28;20060;-79
2022/09/05 11:37:38;;;;;;;2.67;1.17;;;;;;;24.93;45.63;100906.56;5035487;28;20055;-78
2022/09/05 11:41:56;;;;;;;3.78;1.10;;;;;;;24.74;44.95;100905.03;4970181;28;20149;-77
2022/09/05 11:45:24;;;;;;;2.25;0.80;;;;;;;24.76;44.05;100904.84;4970572;28;20113;-76
2022/09/05 11:48:38;;;;;;;7.25;1.20;;;;;;;24.94;43.77;100902.06;4988534;28;20130;-76
2022/09/05 11:52:20;;;;;;;3.53;1.45;;;;;;;25.25;43.63;100900.47;4992599;28;20042;-76
2022/09/05 11:55:45;;;;;;;4.55;1.33;;;;;;;25.22;43.63;100894.59;4992664;28;20053;-76
2022/09/05 11:59:07;;;;;;;3.35;0.93;;;;;;;25.02;44.04;100899.41;4992850;28;20133;-76
2022/09/05 12:02:37;;;;;;;2.80;1.10;;;;;;;24.77;44.49;100896.69;4993048;28;20073;-76
2022/09/05 12:06:36;;;;;;;2.97;1.30;;;;;;;24.62;45.63;100900.16;4991764;28;20134;-76
2022/09/05 12:09:48;;;;;;;4.20;1.10;;;;;;;24.97;45.13;100897.22;4994822;28;20045;-76
2022/09/05 12:13:17;;;;;;;;;;;;;;;25.08;44.30;100881.84;4996787;28;20081;-76
2022/09/05 12:16:45;;;;;;;6.35;1.30;;;;;;;25.59;42.64;100886.06;4996653;28;19924;-76
2022/09/05 12:20:00;;;;;;;2.78;0.88;;;;;;;25.84;40.14;100878.00;4996892;28;20100;-76
2022/09/05 12:23:48;;;;;;;1.75;0.73;;;;;;;26.03;40.60;100877.59;4995549;28;20046;-74
2022/09/05 12:27:02;;;;;;;4.25;1.30;;;;;;;26.18;40.73;100875.88;4995574;28;20085;-75
2022/09/05 12:30:32;;;;;;;2.78;0.90;;;;;;;26.51;37.76;100870.38;4995402;28;20080;-76
2022/09/05 12:33:47;;;;;;;3.90;1.08;;;;;;;26.67;36.31;100866.78;4977093;28;20085;-76
2022/09/05 12:36:56;;;;;;;2.97;1.25;;;;;;;26.85;35.22;100861.16;4975647;28;20138;-76
2022/09/05 12:40:13;;;;;;;2.67;0.90;;;;;;;27.05;34.65;100856.13;4996456;28;20083;-73
2022/09/05 12:43:24;;;;;;;4.13;1.33;;;;;;;27.39;36.81;100853.00;5015507;28;20110;-74
2022/09/05 12:46:51;;;;;;;4.05;0.95;;;;;;;28.01;35.34;100855.38;5015827;28;20115;-74
2022/09/05 12:50:15;;;;;;;1.90;0.98;;;;;;;28.66;35.22;100850.22;5031125;28;20048;-75
2022/09/05 12:53:20;;;;;;;5.28;1.08;;;;;;;28.89;34.55;100845.47;5035589;28;20052;-74
2022/09/05 12:56:25;;;;;;;2.67;1.00;;;;;;;29.22;33.18;100839.56;5034938;28;20147;-74
2022/09/05 12:59:29;;;;;;;2.95;0.80;;;;;;;29.29;32.04;100835.09;5033925;28;20048;-74
2022/09/05 13:02:35;;;;;;;1.95;0.70;;;;;;;29.48;31.81;100830.03;5035076;28;20048;-75
2022/09/05 13:05:45;;;;;;;2.08;0.90;;;;;;;29.77;29.09;100829.84;5034346;28;20053;-75
2022/09/05 13:09:18;;;;;;;3.58;0.70;;;;;;;30.09;29.67;100825.66;5033431;28;20063;-76
2022/09/05 13:13:35;;;;;;;6.78;1.50;;;;;;;30.22;28.92;100816.81;5033713;28;20091;-78
2022/09/05 13:25:40;;;;;;;4.82;0.80;;;;;;;32.06;27.16;100810.78;5034131;28;20132;-76
2022/09/05 13:29:18;;;;;;;8.10;1.40;;;;;;;32.78;27.30;100808.75;5033565;28;20040;-76
2022/09/05 13:33:05;;;;;;;3.60;0.90;;;;;;;34.72;24.79;100808.31;5033367;28;20043;-76
2022/09/05 13:36:36;;;;;;;3.65;0.80;;;;;;;38.30;19.69;100793.00;5033454;28;20650;-77
2022/09/05 13:40:29;;;;;;;1.83;0.93;;;;;;;41.65;17.47;100793.63;5031160;28;20060;-77
2022/09/05 13:44:17;;;;;;;2.58;1.10;;;;;;;44.89;13.73;100781.59;5012481;28;20049;-76
2022/09/05 13:48:19;;;;;;;2.38;0.80;;;;;;;46.08;11.00;100767.81;5026080;28;20057;-76
2022/09/05 13:57:24;;;;;;;2.15;0.93;;;;;;;42.77;11.80;100772.06;4980337;28;20323;-77
2022/09/05 14:01:12;;;;;;;2.42;0.90;;;;;;;46.31;10.27;100765.94;5032161;28;20099;-77
2022/09/05 14:15:20;;;;;;;;;;;;;;;;;;;;;
2022/09/05 14:22:52;;;;;;;1.80;0.90;;;;;;;47.82;8.58;100738.22;5053722;28;20056;-75
2022/09/05 14:26:03;;;;;;;2.08;0.80;;;;;;;44.42;10.29;100736.63;5073665;28;20124;-75
2022/09/05 14:29:10;;;;;;;1.52;0.50;;;;;;;41.30;12.20;100740.47;5073380;28;20078;-76
2022/09/05 14:32:28;;;;;;;1.95;0.80;;;;;;;44.46;10.77;100718.38;5072425;28;20173;-75
2022/09/05 14:36:06;;;;;;;4.07;0.88;;;;;;;46.41;10.10;100721.41;5072053;28;20067;-75
2022/09/05 14:39:29;;;;;;;2.25;1.00;;;;;;;47.59;9.99;100721.72;5072401;28;20056;-75
2022/09/05 14:43:04;;;;;;;3.17;0.70;;;;;;;43.14;10.67;100725.47;5073378;28;20039;-75
2022/09/05 14:46:25;;;;;;;4.00;0.90;;;;;;;39.96;14.51;100725.19;5073092;28;20043;-74
2022/09/05 14:49:55;;;;;;;3.00;1.00;;;;;;;44.44;11.34;100717.84;5059993;28;20552;-75
2022/09/05 14:53:13;;;;;;;2.55;1.25;;;;;;;44.58;11.39;100712.34;5029637;28;20403;-75
2022/09/05 14:56:35;;;;;;;2.08;1.00;;;;;;;47.33;9.89;100707.00;5052222;28;20043;-75
2022/09/05 14:59:51;;;;;;;2.70;0.90;;;;;;;46.73;10.59;100695.41;5052386;28;20450;-75
2022/09/05 15:03:00;;;;;;;4.05;0.90;;;;;;;47.00;10.29;100699.91;5052587;28;20470;-75
2022/09/05 15:06:20;;;;;;;1.98;1.02;;;;;;;47.05;8.58;100685.13;5050788;28;20503;-75
2022/09/05 15:09:24;;;;;;;3.53;0.90;;;;;;;46.77;9.80;100688.09;5050468;28;20098;-74
2022/09/05 15:12:28;;;;;;;4.32;1.00;;;;;;;45.96;10.63;100691.03;5051256;28;20040;-74
2022/09/05 15:15:40;;;;;;;2.78;0.90;;;;;;;46.08;10.16;100685.75;5050142;28;20126;-73
2022/09/05 15:19:00;;;;;;;3.17;0.80;;;;;;;46.07;10.14;100688.81;5068404;28;20071;-74
2022/09/05 15:22:27;;;;;;;1.67;0.68;;;;;;;44.31;12.46;100686.38;5054011;28;20117;-74
2022/09/05 15:25:44;;;;;;;3.88;0.65;;;;;;;38.52;16.27;100692.72;5051777;28;20558;-74
2022/09/05 15:28:50;;;;;;;3.70;0.80;;;;;;;36.54;18.84;100691.94;5052401;28;20056;-73
2022/09/05 15:32:17;;;;;;;2.50;0.70;;;;;;;38.51;16.65;100696.50;5052743;28;20083;-74
2022/09/05 15:35:36;;;;;;;1.83;0.63;;;;;;;41.36;15.25;100684.50;5071050;28;20133;-74
2022/09/05 15:38:41;;;;;;;2.90;1.20;;;;;;;44.19;12.11;100669.47;5070601;28;20112;-74
2022/09/05 15:41:46;;;;;;;5.85;0.70;;;;;;;39.21;15.82;100672.63;5071193;28;20118;-74
2022/09/05 15:44:59;;;;;;;5.15;0.90;;;;;;;36.39;17.62;100672.59;5072756;28;20052;-74
2022/09/05 15:48:33;;;;;;;4.10;1.08;;;;;;;34.42;21.95;100681.53;5074610;28;20395;-73
2022/09/05 15:51:55;;;;;;;2.13;0.90;;;;;;;32.80;23.99;100675.81;5073686;28;20047;-73
2022/09/05 15:55:21;;;;;;;2.28;0.88;;;;;;;31.55;26.32;100671.00;5061622;28;20094;-73
2022/09/05 15:58:24;;;;;;;2.63;0.70;;;;;;;30.63;27.98;100669.31;5074160;28;20222;-73
2022/09/05 16:01:32;;;;;;;5.38;0.90;;;;;;;29.75;29.29;100680.97;5075092;28;20132;-73
2022/09/05 16:05:14;;;;;;;2.17;0.65;;;;;;;29.15;30.34;100677.97;5075171;28;20051;-72
2022/09/05 16:08:22;;;;;;;1.70;0.65;;;;;;;28.90;31.15;100680.25;5075056;28;20094;-74
2022/09/05 16:11:39;;;;;;;2.90;0.93;;;;;;;28.64;31.85;100674.69;5075562;28;20055;-73
2022/09/05 16:14:56;;;;;;;2.00;0.70;;;;;;;28.51;33.99;100686.16;5083069;28;20113;-72
2022/09/05 16:18:37;;;;;;;3.40;0.90;;;;;;;28.51;33.14;100678.94;5107902;28;20062;-72
2022/09/05 16:22:03;;;;;;;2.85;1.17;;;;;;;28.22;33.48;100687.13;5109039;28;20054;-72
2022/09/05 16:25:27;;;;;;;3.95;1.30;;;;;;;27.99;35.88;100680.06;5105447;28;20067;-73
2022/09/05 16:43:28;;;;;;;2.72;0.98;;;;;;;27.78;37.62;100667.41;5054861;28;20051;-73